Time;durP1;ratioP1;P1;durP2;ratioP2;P2;SDS_P1;SDS_P2;PMS_P1;PMS_P2;Temp;Humidity;BMP_temperature;BMP_pressure;BME280_temperature;BME280_humidity;BME280_pressure;Samples;Min_cycle;Max_cycle;Signal;HPM_P1;HPM_P2
2023/07/22 00:00:14;;;;;;;5.90;3.88;;;;;;;;;;6322862;28;20052;-73
2023/07/22 00:03:16;;;;;;;6.72;4.22;;;;;;;;;;6324221;28;20113;-72
2023/07/22 00:06:19;;;;;;;6.30;3.42;;;;;;;;;;6320862;28;20263;-71
2023/07/22 00:09:21;;;;;;;7.85;3.67;;;;;;;;;;6322553;28;20125;-71
2023/07/22 00:12:25;;;;;;;7.97;4.20;;;;;;;;;;6324217;28;20070;-72
2023/07/22 00:15:26;;;;;;;8.43;4.20;;;;;;;;;;6322895;28;20059;-74
2023/07/22 00:18:28;;;;;;;18.38;9.85;;;;;;;;;;6319944;28;20216;-71
2023/07/22 00:21:31;;;;;;;9.35;5.97;;;;;;;;;;6321983;28;20159;-71
2023/07/22 00:24:33;;;;;;;7.57;4.10;;;;;;;;;;6319296;28;20048;-72
2023/07/22 00:27:35;;;;;;;7.80;5.07;;;;;;;;;;6323298;28;20097;-73
2023/07/22 00:30:36;;;;;;;5.93;3.63;;;;;;;;;;6318610;27;20381;-73
2023/07/22 00:33:38;;;;;;;5.93;3.78;;;;;;;;;;6322953;28;20865;-76
2023/07/22 00:36:41;;;;;;;7.45;3.97;;;;;;;;;;6321205;28;20052;-73
2023/07/22 00:39:42;;;;;;;5.70;3.88;;;;;;;;;;6323017;28;20086;-73
2023/07/22 00:42:44;;;;;;;6.40;3.85;;;;;;;;;;6321531;28;20097;-74
2023/07/22 00:45:45;;;;;;;6.45;3.75;;;;;;;;;;6316053;28;20382;-73
2023/07/22 00:48:48;;;;;;;5.22;3.63;;;;;;;;;;6322493;28;20344;-72
2023/07/22 00:51:51;;;;;;;6.13;3.58;;;;;;;;;;6322739;28;20326;-73
2023/07/22 00:54:53;;;;;;;6.68;3.80;;;;;;;;;;6321710;28;20169;-74
2023/07/22 00:57:55;;;;;;;9.75;3.65;;;;;;;;;;6320592;28;20062;-76
2023/07/22 01:00:57;;;;;;;6.37;3.90;;;;;;;;;;6326842;28;21010;-74
2023/07/22 01:03:59;;;;;;;14.52;7.45;;;;;;;;;;6327136;28;20662;-74
2023/07/22 01:07:04;;;;;;;8.18;3.95;;;;;;;;;;6327646;28;20076;-74
2023/07/22 01:10:07;;;;;;;6.57;4.38;;;;;;;;;;6327972;28;20093;-75
2023/07/22 01:13:09;;;;;;;6.18;3.70;;;;;;;;;;6324256;28;20098;-74
2023/07/22 01:16:11;;;;;;;218.73;200.50;;;;;;;;;;6323524;28;20111;-74
2023/07/22 01:19:15;;;;;;;9.07;4.57;;;;;;;;;;6322720;28;20056;-74
2023/07/22 01:22:19;;;;;;;55.45;49.33;;;;;;;;;;6327970;28;20122;-74
2023/07/22 01:25:22;;;;;;;31.63;19.30;;;;;;;;;;6325497;28;20115;-74
2023/07/22 01:28:24;;;;;;;9.63;4.47;;;;;;;;;;6327596;28;20056;-75
2023/07/22 01:31:25;;;;;;;8.40;4.00;;;;;;;;;;6326247;28;20407;-75
2023/07/22 01:34:27;;;;;;;9.15;4.97;;;;;;;;;;6322517;28;20058;-74
2023/07/22 01:37:28;;;;;;;8.25;4.30;;;;;;;;;;6323010;28;20079;-74
2023/07/22 01:40:31;;;;;;;9.25;4.03;;;;;;;;;;6326599;28;20273;-75
2023/07/22 01:43:33;;;;;;;7.13;4.40;;;;;;;;;;6324888;28;20077;-74
2023/07/22 01:46:35;;;;;;;13.02;4.30;;;;;;;;;;6314343;28;20115;-75
2023/07/22 01:49:37;;;;;;;9.27;4.28;;;;;;;;;;6322275;28;20371;-75
2023/07/22 01:52:38;;;;;;;6.13;4.18;;;;;;;;;;6324628;28;20053;-74
2023/07/22 01:55:41;;;;;;;6.45;4.60;;;;;;;;;;6324707;28;20047;-74
2023/07/22 01:58:43;;;;;;;9.77;5.22;;;;;;;;;;6324328;28;20255;-74
2023/07/22 02:01:44;;;;;;;6.25;4.03;;;;;;;;;;6324556;28;20351;-74
2023/07/22 02:04:46;;;;;;;7.57;4.32;;;;;;;;;;6327777;28;20066;-75
2023/07/22 02:07:47;;;;;;;11.48;4.45;;;;;;;;;;6323508;28;20048;-75
2023/07/22 02:10:50;;;;;;;5.78;4.07;;;;;;;;;;6321981;28;20056;-76
2023/07/22 02:13:52;;;;;;;9.50;4.95;;;;;;;;;;6322540;28;20335;-76
2023/07/22 02:16:54;;;;;;;7.50;4.13;;;;;;;;;;6324206;28;20060;-76
2023/07/22 02:19:55;;;;;;;7.32;4.35;;;;;;;;;;6319174;28;20047;-75
2023/07/22 02:22:57;;;;;;;10.50;4.63;;;;;;;;;;6319939;28;20056;-77
2023/07/22 02:26:00;;;;;;;8.40;4.40;;;;;;;;;;6322915;28;20052;-76
2023/07/22 02:29:02;;;;;;;15.02;8.10;;;;;;;;;;6324795;28;20049;-76
2023/07/22 02:32:04;;;;;;;60.20;54.73;;;;;;;;;;6319771;28;20335;-76
2023/07/22 02:35:06;;;;;;;8.75;5.60;;;;;;;;;;6324674;28;20510;-76
2023/07/22 02:38:08;;;;;;;11.23;6.97;;;;;;;;;;6323972;27;20359;-76
2023/07/22 02:41:11;;;;;;;346.60;320.55;;;;;;;;;;6322577;28;20480;-76
2023/07/22 02:44:13;;;;;;;9.20;5.90;;;;;;;;;;6324892;28;20048;-76
2023/07/22 02:47:15;;;;;;;9.60;5.85;;;;;;;;;;6323955;28;20332;-77
2023/07/22 02:50:16;;;;;;;10.90;6.53;;;;;;;;;;6323154;28;20056;-76
2023/07/22 02:53:18;;;;;;;11.65;7.38;;;;;;;;;;6323109;28;20208;-76
2023/07/22 02:56:21;;;;;;;11.70;7.88;;;;;;;;;;6320659;28;20116;-77
2023/07/22 02:59:24;;;;;;;12.65;7.80;;;;;;;;;;6324407;28;20246;-76
2023/07/22 03:02:25;;;;;;;41.35;36.90;;;;;;;;;;6325222;28;20146;-77
2023/07/22 03:05:28;;;;;;;11.02;7.05;;;;;;;;;;6323761;28;20044;-77
2023/07/22 03:08:29;;;;;;;11.75;6.45;;;;;;;;;;6323452;28;20063;-76
2023/07/22 03:11:32;;;;;;;8.77;6.50;;;;;;;;;;6322650;28;20044;-76
2023/07/22 03:14:36;;;;;;;10.30;7.07;;;;;;;;;;6323908;27;20051;-77
2023/07/22 03:17:38;;;;;;;11.63;7.55;;;;;;;;;;6326527;28;20055;-76
2023/07/22 03:20:39;;;;;;;11.52;6.95;;;;;;;;;;6325241;28;20139;-76
2023/07/22 03:23:41;;;;;;;12.85;7.07;;;;;;;;;;6321232;28;20056;-76
2023/07/22 03:26:44;;;;;;;96.35;87.47;;;;;;;;;;6322150;28;20060;-76
2023/07/22 03:29:45;;;;;;;12.00;7.63;;;;;;;;;;6321457;28;20311;-76
2023/07/22 03:32:50;;;;;;;637.30;586.83;;;;;;;;;;6325474;28;20051;-76
2023/07/22 03:35:51;;;;;;;10.65;7.22;;;;;;;;;;6321275;28;20056;-76
2023/07/22 03:38:53;;;;;;;14.45;8.55;;;;;;;;;;6327565;28;20090;-76
2023/07/22 03:41:56;;;;;;;14.65;7.90;;;;;;;;;;6322365;28;20355;-76
2023/07/22 03:44:57;;;;;;;19.55;10.68;;;;;;;;;;6323795;28;20067;-76
2023/07/22 03:47:59;;;;;;;131.93;117.85;;;;;;;;;;6320312;28;20044;-75
2023/07/22 03:51:01;;;;;;;1003.00;919.67;;;;;;;;;;6324342;28;20123;-75
2023/07/22 03:54:02;;;;;;;14.77;9.60;;;;;;;;;;6328271;28;20345;-76
2023/07/22 03:57:06;;;;;;;17.67;10.98;;;;;;;;;;6319413;28;20056;-75
2023/07/22 04:00:09;;;;;;;19.58;10.07;;;;;;;;;;6325096;28;20052;-75
2023/07/22 04:03:11;;;;;;;17.50;10.07;;;;;;;;;;6319959;28;20213;-75
2023/07/22 04:06:12;;;;;;;16.45;9.13;;;;;;;;;;6323793;28;20075;-75
2023/07/22 04:09:14;;;;;;;13.68;8.02;;;;;;;;;;6321007;28;20044;-75
2023/07/22 04:12:17;;;;;;;14.18;7.82;;;;;;;;;;6322820;28;20060;-76
2023/07/22 04:15:18;;;;;;;11.57;7.10;;;;;;;;;;6322252;28;20052;-75
2023/07/22 04:18:21;;;;;;;14.38;7.30;;;;;;;;;;6321641;28;20056;-75
2023/07/22 04:21:22;;;;;;;10.65;7.28;;;;;;;;;;6322029;28;20044;-75
2023/07/22 04:24:24;;;;;;;13.65;7.35;;;;;;;;;;6324616;28;20075;-76
2023/07/22 04:27:28;;;;;;;12.40;7.40;;;;;;;;;;6320376;28;20062;-75
2023/07/22 04:30:30;;;;;;;12.50;7.95;;;;;;;;;;6322781;28;20052;-75
2023/07/22 04:33:32;;;;;;;14.60;7.70;;;;;;;;;;6322392;28;20058;-76
2023/07/22 04:36:34;;;;;;;14.48;7.65;;;;;;;;;;6322620;28;20116;-76
2023/07/22 04:39:36;;;;;;;17.52;8.45;;;;;;;;;;6321654;28;20433;-76
2023/07/22 04:42:39;;;;;;;13.10;7.22;;;;;;;;;;6321530;28;20321;-76
2023/07/22 04:45:40;;;;;;;11.43;7.15;;;;;;;;;;6322531;28;20060;-76
2023/07/22 04:48:42;;;;;;;10.68;6.43;;;;;;;;;;6321352;28;20142;-76
2023/07/22 04:51:43;;;;;;;10.30;6.57;;;;;;;;;;6322443;28;20051;-76
2023/07/22 04:54:47;;;;;;;12.90;6.53;;;;;;;;;;6322200;28;20155;-76
2023/07/22 04:57:51;;;;;;;13.50;7.78;;;;;;;;;;6320831;28;20051;-76
2023/07/22 05:00:52;;;;;;;12.23;6.95;;;;;;;;;;6322898;28;20052;-76
2023/07/22 05:03:55;;;;;;;16.00;9.00;;;;;;;;;;6321776;27;20048;-76
2023/07/22 05:06:56;;;;;;;11.77;6.72;;;;;;;;;;6319382;28;20064;-75
2023/07/22 05:09:58;;;;;;;11.90;6.75;;;;;;;;;;6321016;28;20052;-76
2023/07/22 05:13:00;;;;;;;14.63;7.70;;;;;;;;;;6325634;28;20097;-76
2023/07/22 05:16:02;;;;;;;12.50;7.65;;;;;;;;;;6322169;28;20341;-77
2023/07/22 05:19:05;;;;;;;13.68;8.98;;;;;;;;;;6322324;28;20062;-75
2023/07/22 05:22:07;;;;;;;16.63;8.00;;;;;;;;;;6322632;28;20052;-76
2023/07/22 05:25:09;;;;;;;15.65;9.00;;;;;;;;;;6321994;28;20048;-75
2023/07/22 05:28:12;;;;;;;14.43;7.82;;;;;;;;;;6322680;28;20048;-77
2023/07/22 05:31:13;;;;;;;13.18;7.75;;;;;;;;;;6320274;28;20052;-76
2023/07/22 05:34:15;;;;;;;13.00;7.95;;;;;;;;;;6321202;28;20056;-76
2023/07/22 05:37:16;;;;;;;12.60;8.15;;;;;;;;;;6320652;28;20071;-75
2023/07/22 05:40:18;;;;;;;16.35;8.60;;;;;;;;;;6318678;28;20055;-77
2023/07/22 05:43:21;;;;;;;13.70;7.88;;;;;;;;;;6318875;28;20056;-75
2023/07/22 05:46:23;;;;;;;20.52;10.68;;;;;;;;;;6325086;27;20399;-77
2023/07/22 05:49:24;;;;;;;13.57;8.90;;;;;;;;;;6325233;28;20059;-77
2023/07/22 05:52:26;;;;;;;14.77;8.38;;;;;;;;;;6327597;28;20044;-77
2023/07/22 05:55:27;;;;;;;16.13;9.38;;;;;;;;;;6325596;28;20056;-77
2023/07/22 05:58:30;;;;;;;11.40;7.35;;;;;;;;;;6322355;28;20056;-78
2023/07/22 06:01:32;;;;;;;12.00;7.63;;;;;;;;;;6325546;28;20116;-76
2023/07/22 06:04:33;;;;;;;13.63;7.80;;;;;;;;;;6321535;28;20048;-76
2023/07/22 06:07:36;;;;;;;12.10;8.30;;;;;;;;;;6324956;28;20051;-77
2023/07/22 06:10:38;;;;;;;12.55;7.90;;;;;;;;;;6324146;28;20062;-77
2023/07/22 06:13:41;;;;;;;17.63;8.82;;;;;;;;;;6325541;28;20052;-77
2023/07/22 06:16:42;;;;;;;15.45;8.73;;;;;;;;;;6322995;28;20075;-77
2023/07/22 06:19:44;;;;;;;12.80;7.93;;;;;;;;;;6324660;28;20044;-77
2023/07/22 06:22:45;;;;;;;13.35;8.38;;;;;;;;;;6324866;28;20248;-77
2023/07/22 06:25:47;;;;;;;11.95;8.25;;;;;;;;;;6326879;28;20051;-77
2023/07/22 06:28:50;;;;;;;11.90;7.28;;;;;;;;;;6325128;28;20053;-76
2023/07/22 06:31:52;;;;;;;8.13;5.30;;;;;;;;;;6326019;28;20067;-77
2023/07/22 06:34:53;;;;;;;10.15;5.72;;;;;;;;;;6326713;28;20111;-77
2023/07/22 06:37:55;;;;;;;8.48;5.10;;;;;;;;;;6325764;28;20048;-77
2023/07/22 06:40:57;;;;;;;10.52;6.10;;;;;;;;;;6324272;28;20231;-77
2023/07/22 06:44:00;;;;;;;13.40;6.65;;;;;;;;;;6323999;28;20055;-76
2023/07/22 06:47:01;;;;;;;13.65;6.43;;;;;;;;;;6323426;27;20144;-77
2023/07/22 06:50:04;;;;;;;11.27;7.20;;;;;;;;;;6325308;27;20111;-77
2023/07/22 06:53:05;;;;;;;10.23;6.63;;;;;;;;;;6323490;28;20373;-76
2023/07/22 06:56:07;;;;;;;11.50;7.57;;;;;;;;;;6320649;28;20043;-76
2023/07/22 06:59:10;;;;;;;11.80;7.68;;;;;;;;;;6323077;28;20086;-78
2023/07/22 07:02:11;;;;;;;11.43;7.22;;;;;;;;;;6322431;28;20136;-77
2023/07/22 07:05:13;;;;;;;17.80;8.25;;;;;;;;;;6322467;28;20412;-77
2023/07/22 07:08:14;;;;;;;12.13;7.88;;;;;;;;;;6323139;28;20116;-77
2023/07/22 07:11:16;;;;;;;12.73;8.30;;;;;;;;;;6322112;28;20168;-77
2023/07/22 07:14:19;;;;;;;9.13;7.07;;;;;;;;;;6321570;28;20102;-76
2023/07/22 07:17:21;;;;;;;11.77;7.40;;;;;;;;;;6326133;28;20119;-77
2023/07/22 07:20:23;;;;;;;11.07;7.45;;;;;;;;;;6325163;28;20286;-77
2023/07/22 07:23:24;;;;;;;11.60;7.25;;;;;;;;;;6326278;28;20063;-77
2023/07/22 07:26:26;;;;;;;12.27;6.60;;;;;;;;;;6322705;28;20051;-80
2023/07/22 07:29:29;;;;;;;12.32;6.93;;;;;;;;;;6323670;28;20324;-78
2023/07/22 07:32:30;;;;;;;9.55;6.22;;;;;;;;;;6322869;28;20202;-76
2023/07/22 07:35:32;;;;;;;9.18;6.53;;;;;;;;;;6319829;28;20079;-78
2023/07/22 07:38:34;;;;;;;9.10;6.00;;;;;;;;;;6319348;28;20268;-75
2023/07/22 07:41:35;;;;;;;7.05;5.20;;;;;;;;;;6320881;28;20137;-76
2023/07/22 07:44:38;;;;;;;9.68;5.20;;;;;;;;;;6321284;28;20268;-76
2023/07/22 07:47:40;;;;;;;8.30;5.90;;;;;;;;;;6323074;28;20052;-77
2023/07/22 07:50:42;;;;;;;8.90;5.30;;;;;;;;;;6322789;27;20255;-75
2023/07/22 07:53:44;;;;;;;12.37;5.80;;;;;;;;;;6321034;28;20153;-77
2023/07/22 07:56:46;;;;;;;8.10;5.47;;;;;;;;;;6322420;28;20067;-76
2023/07/22 07:59:49;;;;;;;9.93;6.18;;;;;;;;;;6323258;28;20067;-77
2023/07/22 08:02:50;;;;;;;9.85;5.60;;;;;;;;;;6325025;28;20050;-76
2023/07/22 08:05:52;;;;;;;8.65;6.13;;;;;;;;;;6324011;28;20323;-76
2023/07/22 08:08:53;;;;;;;8.55;5.43;;;;;;;;;;6322319;28;20092;-76
2023/07/22 08:11:55;;;;;;;9.07;5.35;;;;;;;;;;6321622;28;20054;-76
2023/07/22 08:14:58;;;;;;;13.18;5.95;;;;;;;;;;6323495;28;20243;-75
2023/07/22 08:17:59;;;;;;;9.55;5.53;;;;;;;;;;6321144;28;20058;-75
2023/07/22 08:21:02;;;;;;;7.97;6.40;;;;;;;;;;6322591;28;20308;-77
2023/07/22 08:24:04;;;;;;;8.40;6.03;;;;;;;;;;6323325;28;20051;-75
2023/07/22 08:27:05;;;;;;;9.25;5.90;;;;;;;;;;6321749;28;20067;-75
2023/07/22 08:30:09;;;;;;;8.52;5.43;;;;;;;;;;6321277;28;20060;-77
2023/07/22 08:33:11;;;;;;;7.55;5.15;;;;;;;;;;6321582;28;20064;-77
2023/07/22 08:36:12;;;;;;;9.05;5.40;;;;;;;;;;6321845;28;20243;-77
2023/07/22 08:39:14;;;;;;;6.50;5.03;;;;;;;;;;6323869;28;20235;-76
2023/07/22 08:42:18;;;;;;;7.60;4.70;;;;;;;;;;6323270;28;20056;-77
2023/07/22 08:45:21;;;;;;;6.82;3.97;;;;;;;;;;6320207;28;20056;-76
2023/07/22 08:48:22;;;;;;;;;;;;;;;;;;6326980;28;20241;-77
2023/07/22 08:51:25;;;;;;;8.60;5.22;;;;;;;;;;6319431;28;19931;-77
2023/07/22 08:54:26;;;;;;;9.10;5.50;;;;;;;;;;6320068;28;20044;-74
2023/07/22 08:57:30;;;;;;;10.10;5.45;;;;;;;;;;6319522;28;20059;-77
2023/07/22 09:00:31;;;;;;;;;;;;;;;;;;6321966;28;20239;-77
2023/07/22 09:03:35;;;;;;;7.93;5.15;;;;;;;;;;6319035;28;19919;-77
2023/07/22 09:06:36;;;;;;;9.07;5.78;;;;;;;;;;6319559;28;20047;-74
2023/07/22 09:09:38;;;;;;;9.55;5.40;;;;;;;;;;6321773;28;20055;-77
2023/07/22 09:12:40;;;;;;;9.68;5.90;;;;;;;;;;6323086;28;20055;-77
2023/07/22 09:15:42;;;;;;;6.90;5.07;;;;;;;;;;6319611;27;20061;-77
2023/07/22 09:18:45;;;;;;;8.77;5.32;;;;;;;;;;6321608;28;20071;-76
2023/07/22 09:21:46;;;;;;;7.72;5.15;;;;;;;;;;6320081;28;20067;-76
2023/07/22 09:24:47;;;;;;;6.97;5.03;;;;;;;;;;6324267;28;20067;-74
2023/07/22 09:27:50;;;;;;;6.03;4.60;;;;;;;;;;6327119;28;20048;-76
2023/07/22 09:31:01;;;;;;;8.02;4.75;;;;;;;;;;6325136;28;20051;-77
2023/07/22 09:34:11;;;;;;;9.00;4.85;;;;;;;;;;6330016;28;21207;-76
2023/07/22 09:37:12;;;;;;;8.25;4.38;;;;;;;;;;6329556;28;20059;-77
2023/07/22 09:40:14;;;;;;;6.95;4.40;;;;;;;;;;6324019;28;20048;-77
2023/07/22 09:43:16;;;;;;;8.50;4.43;;;;;;;;;;6325865;28;20079;-77
2023/07/22 09:46:17;;;;;;;5.53;3.80;;;;;;;;;;6326559;28;20244;-74
2023/07/22 09:49:21;;;;;;;9.30;3.88;;;;;;;;;;6324638;28;20055;-77
2023/07/22 09:52:24;;;;;;;3.65;2.88;;;;;;;;;;6326413;28;20044;-77
2023/07/22 09:55:28;;;;;;;4.72;3.20;;;;;;;;;;6327330;28;20247;-77
2023/07/22 09:58:30;;;;;;;5.78;3.15;;;;;;;;;;6329371;28;20094;-77
2023/07/22 10:01:31;;;;;;;5.03;3.10;;;;;;;;;;6324336;28;20048;-77
2023/07/22 10:04:35;;;;;;;4.63;3.08;;;;;;;;;;6325925;28;20047;-77
2023/07/22 10:07:38;;;;;;;5.78;2.78;;;;;;;;;;6326582;28;20060;-77
2023/07/22 10:10:40;;;;;;;5.88;2.80;;;;;;;;;;6323761;28;20132;-75
2023/07/22 10:13:41;;;;;;;5.22;3.05;;;;;;;;;;6325116;28;20274;-77
2023/07/22 10:16:43;;;;;;;4.90;3.42;;;;;;;;;;6327009;27;20101;-76
2023/07/22 10:19:46;;;;;;;4.60;2.60;;;;;;;;;;6321140;28;20047;-75
2023/07/22 10:22:48;;;;;;;4.80;3.30;;;;;;;;;;6324917;28;20071;-75
2023/07/22 10:25:49;;;;;;;3.97;2.42;;;;;;;;;;6324841;28;20056;-75
2023/07/22 10:28:51;;;;;;;4.28;2.80;;;;;;;;;;6324534;28;20067;-77
2023/07/22 10:31:54;;;;;;;3.33;2.78;;;;;;;;;;6322072;28;20139;-77
2023/07/22 10:34:57;;;;;;;6.20;2.53;;;;;;;;;;6327194;28;20052;-76
2023/07/22 10:38:07;;;;;;;4.55;2.50;;;;;;;;;;6326667;28;20059;-76
2023/07/22 10:41:13;;;;;;;3.80;2.53;;;;;;;;;;6321569;28;20710;-76
2023/07/22 10:44:14;;;;;;;3.10;2.30;;;;;;;;;;6322467;28;20058;-77
2023/07/22 10:47:32;;;;;;;4.93;2.72;;;;;;;;;;6320919;28;20258;-76
2023/07/22 10:50:44;;;;;;;3.83;2.50;;;;;;;;;;6321700;28;20059;-76
2023/07/22 10:53:47;;;;;;;5.00;3.08;;;;;;;;;;6323277;28;20066;-76
2023/07/22 10:56:48;;;;;;;4.88;2.63;;;;;;;;;;6325185;28;20071;-77
2023/07/22 10:59:50;;;;;;;3.40;2.50;;;;;;;;;;6324199;27;20057;-76
2023/07/22 11:03:09;;;;;;;4.18;2.53;;;;;;;;;;6320807;28;20280;-76
2023/07/22 11:06:15;;;;;;;3.50;2.58;;;;;;;;;;6322916;28;20044;-76
2023/07/22 11:09:33;;;;;;;3.85;2.42;;;;;;;;;;6320825;28;20051;-76
2023/07/22 11:12:34;;;;;;;4.57;2.35;;;;;;;;;;6324563;28;20135;-76
2023/07/22 11:15:36;;;;;;;4.07;3.00;;;;;;;;;;6324668;28;20064;-76
2023/07/22 11:18:38;;;;;;;3.83;2.75;;;;;;;;;;6323766;28;20048;-76
2023/07/22 11:21:41;;;;;;;3.97;2.55;;;;;;;;;;6321846;28;20071;-76
2023/07/22 11:24:42;;;;;;;6.28;3.33;;;;;;;;;;6324103;28;20047;-76
2023/07/22 11:27:44;;;;;;;5.90;2.35;;;;;;;;;;6319135;28;20043;-76
2023/07/22 11:30:46;;;;;;;3.28;2.50;;;;;;;;;;6321444;28;20058;-76
2023/07/22 11:33:47;;;;;;;4.80;2.90;;;;;;;;;;6325639;28;20332;-75
2023/07/22 11:36:51;;;;;;;5.57;3.00;;;;;;;;;;6324160;27;20486;-76
2023/07/22 11:39:54;;;;;;;4.85;2.70;;;;;;;;;;6324029;28;20056;-76
2023/07/22 11:42:55;;;;;;;4.10;2.47;;;;;;;;;;6318380;28;20060;-77
2023/07/22 11:45:57;;;;;;;6.07;2.67;;;;;;;;;;6321230;28;20112;-76
2023/07/22 11:48:59;;;;;;;5.03;2.53;;;;;;;;;;6322877;28;20488;-76
2023/07/22 11:52:03;;;;;;;6.30;3.30;;;;;;;;;;6323498;28;20101;-76
2023/07/22 11:55:05;;;;;;;4.95;2.90;;;;;;;;;;6324638;28;20044;-76
2023/07/22 11:58:07;;;;;;;3.90;2.40;;;;;;;;;;6320984;28;20053;-76
2023/07/22 12:01:11;;;;;;;3.67;2.50;;;;;;;;;;6322622;28;20055;-75
2023/07/22 12:04:13;;;;;;;5.43;2.80;;;;;;;;;;6319532;28;20059;-77
2023/07/22 12:07:26;;;;;;;4.13;2.45;;;;;;;;;;6319499;28;20047;-76
2023/07/22 12:10:27;;;;;;;4.85;2.80;;;;;;;;;;6323741;28;20051;-75
2023/07/22 12:13:29;;;;;;;4.57;2.92;;;;;;;;;;6327533;28;20248;-76
2023/07/22 12:16:30;;;;;;;5.45;2.72;;;;;;;;;;6324062;28;20047;-77
2023/07/22 12:19:32;;;;;;;3.28;2.50;;;;;;;;;;6321726;27;22052;-75
2023/07/22 12:22:34;;;;;;;4.20;2.88;;;;;;;;;;6324334;28;20048;-77
2023/07/22 12:25:36;;;;;;;5.57;3.22;;;;;;;;;;6320696;28;20052;-76
2023/07/22 12:28:38;;;;;;;4.70;3.00;;;;;;;;;;6322459;28;20044;-77
2023/07/22 12:31:39;;;;;;;4.70;2.90;;;;;;;;;;6324504;28;20067;-77
2023/07/22 12:34:41;;;;;;;4.07;2.90;;;;;;;;;;6326520;28;20219;-76
2023/07/22 12:37:43;;;;;;;3.35;2.53;;;;;;;;;;6321869;28;20097;-77
2023/07/22 12:40:45;;;;;;;5.20;2.90;;;;;;;;;;6322609;28;20094;-75
2023/07/22 12:43:46;;;;;;;4.07;2.97;;;;;;;;;;6321930;28;20178;-77
2023/07/22 12:46:48;;;;;;;5.63;2.88;;;;;;;;;;6323347;28;20055;-76
2023/07/22 12:49:49;;;;;;;5.50;2.70;;;;;;;;;;6320181;28;20055;-76
2023/07/22 12:52:52;;;;;;;4.35;2.83;;;;;;;;;;6320652;28;20235;-76
2023/07/22 12:55:54;;;;;;;4.28;3.40;;;;;;;;;;6324894;28;20051;-76
2023/07/22 12:58:55;;;;;;;4.70;3.10;;;;;;;;;;6327479;28;20040;-77
2023/07/22 13:01:57;;;;;;;3.70;3.00;;;;;;;;;;6327201;27;20047;-77
2023/07/22 13:04:59;;;;;;;3.95;3.13;;;;;;;;;;6327284;28;20123;-77
2023/07/22 13:08:02;;;;;;;4.05;2.78;;;;;;;;;;6325335;28;20055;-78
2023/07/22 13:11:03;;;;;;;3.88;2.72;;;;;;;;;;6326027;28;20059;-75
2023/07/22 13:14:05;;;;;;;4.05;3.08;;;;;;;;;;6324351;28;20058;-77
2023/07/22 13:17:06;;;;;;;4.20;2.90;;;;;;;;;;6327153;28;20052;-77
2023/07/22 13:20:08;;;;;;;2.97;2.67;;;;;;;;;;6327741;28;20153;-77
2023/07/22 13:23:11;;;;;;;4.72;3.10;;;;;;;;;;6328023;28;20054;-75
2023/07/22 13:26:13;;;;;;;5.05;3.28;;;;;;;;;;6325447;28;20340;-76
2023/07/22 13:29:14;;;;;;;5.57;3.13;;;;;;;;;;6324450;28;20056;-77
2023/07/22 13:32:15;;;;;;;5.93;3.38;;;;;;;;;;6326425;28;20328;-76
2023/07/22 13:35:18;;;;;;;3.95;2.83;;;;;;;;;;6327143;28;20106;-75
2023/07/22 13:38:21;;;;;;;4.95;3.00;;;;;;;;;;6322992;28;20154;-78
2023/07/22 13:41:23;;;;;;;3.55;3.10;;;;;;;;;;6326253;28;20094;-76
2023/07/22 13:44:24;;;;;;;5.93;3.30;;;;;;;;;;6325080;28;20350;-76
2023/07/22 13:47:25;;;;;;;5.40;3.15;;;;;;;;;;6324974;28;20227;-77
2023/07/22 13:50:27;;;;;;;4.38;2.97;;;;;;;;;;6323096;28;20054;-77
2023/07/22 13:53:30;;;;;;;3.50;3.05;;;;;;;;;;6324696;28;21392;-76
2023/07/22 13:56:31;;;;;;;5.18;2.97;;;;;;;;;;6325557;28;20048;-76
2023/07/22 13:59:33;;;;;;;5.75;2.95;;;;;;;;;;6325570;28;20056;-76
2023/07/22 14:02:36;;;;;;;4.15;2.83;;;;;;;;;;6324561;28;20437;-76
2023/07/22 14:05:38;;;;;;;5.03;3.40;;;;;;;;;;6327012;28;20052;-75
2023/07/22 14:08:41;;;;;;;5.68;3.50;;;;;;;;;;6325587;28;20059;-76
2023/07/22 14:11:43;;;;;;;5.82;3.10;;;;;;;;;;6325306;28;20056;-77
2023/07/22 14:14:44;;;;;;;7.03;3.08;;;;;;;;;;6326810;27;20225;-77
2023/07/22 14:17:46;;;;;;;9.45;2.90;;;;;;;;;;6326302;28;20074;-79
2023/07/22 14:20:47;;;;;;;4.63;3.00;;;;;;;;;;6326192;28;20060;-77
2023/07/22 14:23:50;;;;;;;4.65;3.25;;;;;;;;;;6324663;28;20420;-78
2023/07/22 14:26:51;;;;;;;4.20;3.15;;;;;;;;;;6330464;28;20067;-80
2023/07/22 14:29:53;;;;;;;4.05;2.90;;;;;;;;;;6326871;28;20048;-76
2023/07/22 14:32:55;;;;;;;5.88;3.00;;;;;;;;;;6328615;28;20039;-79
2023/07/22 14:35:56;;;;;;;;;;;;;;;;;;6327265;28;20518;-78
2023/07/22 14:38:59;;;;;;;4.65;3.20;;;;;;;;;;6326762;28;19948;-78
2023/07/22 14:42:01;;;;;;;6.10;3.33;;;;;;;;;;6324717;28;20056;-76
2023/07/22 14:45:02;;;;;;;3.65;2.88;;;;;;;;;;6323534;28;20068;-78
2023/07/22 14:48:04;;;;;;;4.68;3.20;;;;;;;;;;6323814;28;20077;-78
2023/07/22 14:51:06;;;;;;;4.72;2.72;;;;;;;;;;6323388;28;20058;-78
2023/07/22 14:54:09;;;;;;;6.55;3.70;;;;;;;;;;6324739;28;20051;-79
2023/07/22 14:57:11;;;;;;;8.32;3.22;;;;;;;;;;6322773;28;20056;-80
2023/07/22 15:00:13;;;;;;;5.05;3.13;;;;;;;;;;6324658;27;20495;-77
2023/07/22 15:03:14;;;;;;;3.67;3.15;;;;;;;;;;6319188;28;20052;-77
2023/07/22 15:06:16;;;;;;;4.57;2.90;;;;;;;;;;6322352;28;20064;-77
2023/07/22 15:09:20;;;;;;;4.88;3.35;;;;;;;;;;6325174;28;20052;-78
2023/07/22 15:12:22;;;;;;;5.50;3.55;;;;;;;;;;6321971;28;20051;-78
2023/07/22 15:15:23;;;;;;;5.30;3.63;;;;;;;;;;6324699;28;20063;-79
2023/07/22 15:18:25;;;;;;;4.53;2.83;;;;;;;;;;6324008;28;20358;-79
2023/07/22 15:21:26;;;;;;;4.38;3.45;;;;;;;;;;6324612;28;20055;-78
2023/07/22 15:24:29;;;;;;;4.38;3.22;;;;;;;;;;6323540;28;20098;-79
2023/07/22 15:27:30;;;;;;;5.90;3.33;;;;;;;;;;6323464;28;20059;-78
2023/07/22 15:30:32;;;;;;;5.90;3.78;;;;;;;;;;6320343;28;20036;-78
2023/07/22 15:33:34;;;;;;;7.05;3.42;;;;;;;;;;6321956;28;20041;-77
2023/07/22 15:36:36;;;;;;;;;;;;;;;;;;6326536;28;20335;-78
2023/07/22 15:39:38;;;;;;;6.50;3.17;;;;;;;;;;6319192;28;19931;-80
2023/07/22 15:42:40;;;;;;;5.03;3.50;;;;;;;;;;6320935;28;20048;-78
2023/07/22 15:45:42;;;;;;;4.78;3.25;;;;;;;;;;6320004;28;20094;-77
2023/07/22 15:48:43;;;;;;;5.13;3.45;;;;;;;;;;6321562;28;20059;-79
2023/07/22 15:51:45;;;;;;;6.95;3.80;;;;;;;;;;6320441;28;20052;-79
2023/07/22 15:54:47;;;;;;;5.75;3.42;;;;;;;;;;6325292;28;20051;-78
2023/07/22 15:57:49;;;;;;;5.47;3.13;;;;;;;;;;6321966;28;20124;-77
2023/07/22 16:00:51;;;;;;;5.07;3.38;;;;;;;;;;6323201;28;20047;-78
2023/07/22 16:03:52;;;;;;;5.00;3.65;;;;;;;;;;6326620;28;20235;-79
2023/07/22 16:06:54;;;;;;;6.20;3.88;;;;;;;;;;6321297;28;20511;-76
2023/07/22 16:09:57;;;;;;;7.28;3.70;;;;;;;;;;6320216;28;20052;-80
2023/07/22 16:12:58;;;;;;;5.75;3.28;;;;;;;;;;6326054;28;20040;-78
2023/07/22 16:15:59;;;;;;;6.45;3.90;;;;;;;;;;6322261;28;20059;-78
2023/07/22 16:19:01;;;;;;;4.88;3.50;;;;;;;;;;6322438;28;20241;-79
2023/07/22 16:22:03;;;;;;;5.90;3.35;;;;;;;;;;6319966;28;20059;-79
2023/07/22 16:25:06;;;;;;;6.70;3.63;;;;;;;;;;6323393;28;20075;-79
2023/07/22 16:28:08;;;;;;;7.05;3.70;;;;;;;;;;6323172;28;20121;-78
2023/07/22 16:31:09;;;;;;;6.03;3.47;;;;;;;;;;6319466;28;20055;-78
2023/07/22 16:34:11;;;;;;;9.18;4.45;;;;;;;;;;6326310;28;20343;-79
2023/07/22 16:37:12;;;;;;;6.22;3.63;;;;;;;;;;6322846;28;20062;-79
2023/07/22 16:40:15;;;;;;;5.65;3.20;;;;;;;;;;6321327;28;20048;-79
2023/07/22 16:43:17;;;;;;;6.68;4.03;;;;;;;;;;6323194;28;20092;-80
2023/07/22 16:46:18;;;;;;;6.35;4.28;;;;;;;;;;6324288;28;20083;-78
2023/07/22 16:49:19;;;;;;;6.30;3.38;;;;;;;;;;6321964;28;20055;-78
2023/07/22 16:52:21;;;;;;;5.78;3.88;;;;;;;;;;6322072;28;20142;-78
2023/07/22 16:55:24;;;;;;;5.72;3.47;;;;;;;;;;6320633;28;20059;-78
2023/07/22 16:58:25;;;;;;;;;;;;;;;;;;6320674;28;20451;-79
2023/07/22 17:01:26;;;;;;;6.75;3.33;;;;;;;;;;6320453;28;19970;-78
2023/07/22 17:04:28;;;;;;;7.05;3.78;;;;;;;;;;6318278;28;20055;-78
2023/07/22 17:07:29;;;;;;;7.43;4.20;;;;;;;;;;6322265;28;20052;-79
2023/07/22 17:10:32;;;;;;;5.82;3.45;;;;;;;;;;6320706;28;20063;-80
2023/07/22 17:13:34;;;;;;;6.43;3.90;;;;;;;;;;6322171;28;20102;-80
2023/07/22 17:16:35;;;;;;;7.63;3.78;;;;;;;;;;6320468;28;20051;-77
2023/07/22 17:19:37;;;;;;;7.63;3.88;;;;;;;;;;6320660;28;20660;-78
2023/07/22 17:22:38;;;;;;;5.90;3.80;;;;;;;;;;6319965;28;20160;-76
2023/07/22 17:25:41;;;;;;;6.05;3.72;;;;;;;;;;6318864;28;20106;-80
2023/07/22 17:28:42;;;;;;;;;;;;;;;;;;6320967;28;20052;-79
2023/07/22 17:31:43;;;;;;;6.88;3.83;;;;;;;;;;6323121;28;20188;-77
2023/07/22 17:34:45;;;;;;;5.82;3.65;;;;;;;;;;6320321;28;20081;-78
2023/07/22 17:37:47;;;;;;;6.32;3.78;;;;;;;;;;6323397;28;20285;-78
2023/07/22 17:40:50;;;;;;;5.68;3.58;;;;;;;;;;6322803;28;20044;-78
2023/07/22 17:43:52;;;;;;;5.47;3.28;;;;;;;;;;6326683;28;20085;-78
2023/07/22 17:46:53;;;;;;;6.53;4.32;;;;;;;;;;6322275;28;20036;-78
2023/07/22 17:49:55;;;;;;;7.07;3.55;;;;;;;;;;6325033;28;20052;-79
2023/07/22 17:52:57;;;;;;;5.55;3.58;;;;;;;;;;6328752;28;20059;-78
2023/07/22 17:56:00;;;;;;;6.75;3.58;;;;;;;;;;6325464;28;20254;-78
2023/07/22 17:59:01;;;;;;;6.50;3.88;;;;;;;;;;6323965;28;20554;-78
2023/07/22 18:02:05;;;;;;;7.57;3.85;;;;;;;;;;6322756;28;20049;-78
2023/07/22 18:05:06;;;;;;;7.15;3.72;;;;;;;;;;6325712;28;20115;-79
2023/07/22 18:08:08;;;;;;;6.82;3.50;;;;;;;;;;6319801;28;20048;-79